This is the latest recevied weather packets stored in our database for station/object N1UNH. If no packets are shown the sender has not sent any weather packets the latest 10 day(s).
| Time | Temp. | Humidity | Pressure | Rain* | Wind** | Luminosity | Snow |
|---|---|---|---|---|---|---|---|
| 1778026610 | 17.22° C | 80% | 1013 hPa | 0 mm | - | 0 W/m² | - |
| 1778026308 | 17.22° C | 82% | 1013.2 hPa | 0 mm | - | 0 W/m² | - |
| 1778026005 | 17.22° C | 83% | 1013.2 hPa | 0 mm | - | 0 W/m² | - |
| 1778025702 | 17.78° C | 85% | 1012.9 hPa | 0 mm | - | 0 W/m² | - |
| 1778025400 | 17.78° C | 82% | 1012.6 hPa | 0 mm | - | 0 W/m² | - |
| 1778025097 | 18.89° C | 79% | 1012.6 hPa | 1.78 mm | - | 0 W/m² | - |
| 1778024794 | 20.56° C | 69% | 1012.6 hPa | 1.78 mm | - | 0 W/m² | - |
| 1778024491 | 21.11° C | 57% | 1012.6 hPa | 0 mm | - | 0 W/m² | - |
| 1778024188 | 21.67° C | 53% | 1012.5 hPa | 0 mm | - | 0 W/m² | - |
| 1778023886 | 22.22° C | 50% | 1011.8 hPa | 0 mm | - | 1 W/m² | - |
| 1778023583 | 22.78° C | 47% | 1011.9 hPa | 0 mm | - | 1 W/m² | - |
| 1778023281 | 23.89° C | 45% | 1012 hPa | 0 mm | - | 1 W/m² | - |
| 1778022977 | 25° C | 41% | 1011.8 hPa | 0 mm | - | 1 W/m² | - |
| 1778022676 | 25° C | 38% | 1011.6 hPa | 0 mm | - | 2 W/m² | - |
| 1778022374 | 25° C | 38% | 1010.9 hPa | 0 mm | - | 3 W/m² | - |
| 1778022070 | 25° C | 39% | 1010.6 hPa | 0 mm | - | 4 W/m² | - |
| 1778021766 | 25° C | 38% | 1010.5 hPa | 0 mm | - | 5 W/m² | - |
| 1778021462 | 25° C | 38% | 1010.3 hPa | 0 mm | - | 7 W/m² | - |
| 1778021159 | 23.89° C | 40% | 1010.7 hPa | 0 mm | - | 12 W/m² | - |
| 1778020857 | 23.89° C | 42% | 1010.6 hPa | 0 mm | - | 25 W/m² | - |
| 1778020554 | 25° C | 40% | 1010.7 hPa | 0 mm | - | 40 W/m² | - |
| 1778020250 | 25.56° C | 37% | 1010.6 hPa | 0 mm | - | 48 W/m² | - |
| 1778019946 | 26.11° C | 36% | 1010.4 hPa | 0 mm | - | 43 W/m² | - |
| 1778019643 | 26.11° C | 35% | 1010.4 hPa | 0 mm | - | 35 W/m² | - |
| 1778019340 | 26.11° C | 35% | 1010.1 hPa | 0 mm | - | 37 W/m² | - |
* Rain latest hour (hover to see other rain measurements)
** Current wind speed in m/s (hover to see current wind gust speed)